Time;durP1;ratioP1;P1;durP2;ratioP2;P2;SDS_P1;SDS_P2;PMS_P1;PMS_P2;Temp;Humidity;BMP_temperature;BMP_pressure;BME280_temperature;BME280_humidity;BME280_pressure;Samples;Min_cycle;Max_cycle;Signal;HPM_P1;HPM_P2
2021/12/17 00:04:30;;;;;;;17.70;15.37;;;8.70;48.60;;;;;;10325551;28;20247;-82
2021/12/17 00:09:34;;;;;;;16.23;13.50;;;8.60;48.70;;;;;;10326111;28;20237;-83
2021/12/17 00:14:38;;;;;;;19.63;16.40;;;8.70;48.80;;;;;;10321990;28;20262;-83
2021/12/17 00:20:01;;;;;;;18.37;15.97;;;8.70;48.80;;;;;;10342125;28;20254;-83
2021/12/17 00:52:00;;;;;;;22.70;18.33;;;8.80;48.30;;;;;;10301852;28;20251;-82
2021/12/17 00:57:09;;;;;;;16.87;14.33;;;8.80;48.70;;;;;;10332600;28;20287;-83
2021/12/17 01:02:17;;;;;;;19.63;17.00;;;8.80;48.70;;;;;;10335075;28;20330;-83
2021/12/17 01:07:24;;;;;;;21.43;16.50;;;8.80;48.90;;;;;;10328294;28;20439;-83
2021/12/17 01:12:27;;;;;;;22.30;18.03;;;8.80;48.80;;;;;;10319872;28;20243;-83
2021/12/17 01:17:33;;;;;;;21.67;17.27;;;8.80;48.60;;;;;;10331900;28;20231;-83
2021/12/17 01:22:56;;;;;;;21.40;17.70;;;8.80;48.60;;;;;;10328243;28;20239;-83
2021/12/17 01:44:04;;;;;;;19.50;16.10;;;8.70;48.70;;;;;;10325288;28;20693;-83
2021/12/17 01:49:25;;;;;;;19.10;16.40;;;8.70;48.80;;;;;;10334927;28;20263;-83
2021/12/17 01:59:52;;;;;;;20.10;16.60;;;8.70;49.00;;;;;;10328792;28;20294;-83
2021/12/17 02:04:55;;;;;;;16.97;14.60;;;8.70;49.00;;;;;;10330459;28;20296;-83
2021/12/17 02:31:59;;;;;;;18.73;15.60;;;8.80;48.90;;;;;;10269243;28;20234;-83
2021/12/17 02:37:08;;;;;;;19.77;15.47;;;8.80;48.80;;;;;;10327728;28;20251;-83
2021/12/17 02:42:33;;;;;;;18.87;15.70;;;8.80;48.80;;;;;;10329935;28;20239;-83
2021/12/17 02:47:37;;;;;;;19.53;15.80;;;8.80;48.60;;;;;;10326156;28;20250;-83
2021/12/17 02:52:42;;;;;;;19.43;15.70;;;8.80;48.50;;;;;;10326773;28;20246;-83
2021/12/17 02:57:46;;;;;;;18.80;15.50;;;8.70;49.30;;;;;;10325690;28;20253;-83
2021/12/17 03:02:51;;;;;;;19.60;15.60;;;8.70;48.70;;;;;;10325324;28;20265;-83
2021/12/17 03:07:57;;;;;;;18.87;15.67;;;8.70;48.70;;;;;;10321413;28;21186;-83
2021/12/17 03:13:02;;;;;;;19.10;16.03;;;8.70;48.70;;;;;;10313236;28;20243;-82
2021/12/17 03:23:31;;;;;;;18.57;15.70;;;8.70;48.50;;;;;;10314876;28;20235;-83
2021/12/17 03:28:36;;;;;;;15.70;13.47;;;8.60;48.30;;;;;;10321350;28;20605;-83
2021/12/17 03:33:42;;;;;;;17.07;14.00;;;8.60;48.20;;;;;;10321866;28;20226;-83
2021/12/17 03:38:50;;;;;;;16.97;13.83;;;8.60;47.90;;;;;;10322618;28;20581;-83
2021/12/17 03:43:56;;;;;;;18.10;15.20;;;8.60;48.00;;;;;;10322795;28;20262;-83
2021/12/17 03:48:59;;;;;;;17.97;14.70;;;8.50;47.90;;;;;;10326141;28;20233;-83
2021/12/17 03:54:04;;;;;;;23.50;17.60;;;8.50;48.00;;;;;;10321646;28;20305;-82
2021/12/17 03:59:10;;;;;;;32.97;21.20;;;8.50;48.20;;;;;;10329636;28;20298;-82
2021/12/17 04:04:13;;;;;;;44.07;18.03;;;8.50;48.20;;;;;;10328032;28;20262;-84
2021/12/17 04:09:21;;;;;;;43.67;17.87;;;8.40;48.10;;;;;;10336207;28;20231;-83
2021/12/17 04:14:33;;;;;;;281.53;17.13;;;8.40;48.30;;;;;;10335824;28;20234;-83
2021/12/17 04:19:36;;;;;;;22.07;14.27;;;8.30;48.20;;;;;;10332956;28;20261;-83
2021/12/17 04:24:41;;;;;;;37.20;13.83;;;8.30;48.30;;;;;;10334926;28;20325;-83
2021/12/17 04:29:44;;;;;;;186.07;14.07;;;8.30;48.50;;;;;;10341467;28;20302;-84
2021/12/17 04:34:48;;;;;;;231.70;14.37;;;8.30;48.50;;;;;;10355638;28;20298;-84
2021/12/17 04:39:52;;;;;;;49.47;11.03;;;8.30;48.30;;;;;;10355250;28;20254;-84
2021/12/17 04:44:57;;;;;;;87.53;11.00;;;8.30;48.50;;;;;;10332714;28;20240;-84
2021/12/17 05:00:44;;;;;;;179.90;12.90;;;8.30;48.50;;;;;;10320516;28;20231;-84
2021/12/17 05:05:47;;;;;;;73.93;10.07;;;8.30;48.30;;;;;;10329875;28;20584;-84
2021/12/17 05:11:16;;;;;;;85.47;9.97;;;8.30;48.00;;;;;;10326285;28;20230;-84
2021/12/17 05:21:39;;;;;;;36.93;10.13;;;8.10;47.60;;;;;;10326248;28;20223;-83
2021/12/17 05:26:44;;;;;;;28.33;9.73;;;8.10;47.80;;;;;;10325998;28;20231;-83
2021/12/17 05:31:47;;;;;;;48.10;10.07;;;8.00;47.90;;;;;;10336335;28;20705;-83
2021/12/17 05:36:51;;;;;;;47.47;9.73;;;7.90;47.90;;;;;;10332631;28;20263;-84
2021/12/17 05:41:55;;;;;;;24.13;9.83;;;7.90;48.10;;;;;;10325076;28;20319;-84
2021/12/17 05:46:58;;;;;;;25.93;9.07;;;7.80;48.00;;;;;;10316175;28;20329;-83
2021/12/17 05:52:01;;;;;;;15.47;8.40;;;7.80;47.90;;;;;;10306869;28;20234;-85
2021/12/17 05:57:07;;;;;;;47.47;9.13;;;7.80;48.00;;;;;;10323670;28;20234;-86
2021/12/17 06:02:11;;;;;;;28.70;8.60;;;7.80;48.10;;;;;;10319100;28;20318;-85
2021/12/17 06:07:24;;;;;;;16.07;8.20;;;7.80;47.90;;;;;;10316917;28;20237;-80
2021/12/17 06:12:28;;;;;;;16.73;8.17;;;7.70;47.90;;;;;;10319931;28;20234;-82
2021/12/17 06:17:32;;;;;;;22.57;7.87;;;7.70;48.20;;;;;;10325442;28;20355;-81
2021/12/17 06:22:35;;;;;;;30.17;8.30;;;7.70;48.20;;;;;;10317798;28;20720;-81
2021/12/17 06:27:41;;;;;;;36.87;7.80;;;7.70;48.10;;;;;;10323834;28;20230;-81
2021/12/17 06:32:44;;;;;;;29.90;7.80;;;7.70;47.90;;;;;;10323171;28;20238;-81
2021/12/17 06:37:47;;;;;;;29.30;8.27;;;7.60;47.50;;;;;;10329975;28;20239;-81
2021/12/17 06:42:52;;;;;;;9.67;6.80;;;7.60;47.60;;;;;;10329287;28;20233;-81
2021/12/17 06:47:58;;;;;;;7.43;6.73;;;7.50;47.60;;;;;;10327573;28;20494;-81
2021/12/17 06:58:48;;;;;;;32.53;6.93;;;7.50;47.90;;;;;;10316574;28;20322;-81
2021/12/17 07:36:09;;;;;;;61.90;5.50;;;7.20;46.90;;;;;;10281234;28;20234;-81
2021/12/17 07:41:13;;;;;;;10.97;6.30;;;7.00;46.80;;;;;;10320007;28;20611;-81
2021/12/17 07:46:18;;;;;;;9.53;5.63;;;6.90;47.20;;;;;;10317762;28;20229;-80
2021/12/17 07:51:24;;;;;;;90.90;6.00;;;6.90;47.90;;;;;;10327256;28;20238;-81
2021/12/17 07:56:31;;;;;;;5.70;3.90;;;6.90;47.80;;;;;;10317309;28;20241;-81
2021/12/17 08:01:36;;;;;;;57.73;5.57;;;7.00;47.90;;;;;;10313015;28;20245;-81
2021/12/17 08:06:40;;;;;;;10.30;4.27;;;6.90;47.50;;;;;;10318721;28;20241;-81
2021/12/17 08:11:43;;;;;;;42.67;5.33;;;6.90;47.50;;;;;;10320094;28;20220;-79
2021/12/17 08:16:56;;;;;;;58.67;5.43;;;6.90;47.60;;;;;;10320067;28;20657;-81
2021/12/17 08:27:27;;;;;;;52.03;5.60;;;6.90;47.40;;;;;;10320492;28;20227;-81
2021/12/17 08:32:32;;;;;;;24.67;6.17;;;6.80;47.60;;;;;;10322733;28;20234;-81
2021/12/17 08:37:35;;;;;;;43.83;6.10;;;6.80;47.50;;;;;;10324434;28;20234;-80
2021/12/17 08:42:39;;;;;;;25.33;7.33;;;6.80;47.80;;;;;;10330400;28;20239;-81
2021/12/17 08:47:44;;;;;;;12.10;7.70;;;6.80;47.70;;;;;;10326837;28;20748;-79
2021/12/17 08:52:48;;;;;;;128.63;8.07;;;6.80;47.70;;;;;;10336626;28;20309;-81
2021/12/17 08:57:51;;;;;;;72.33;8.67;;;6.80;47.60;;;;;;10330012;28;20231;-82
2021/12/17 09:02:59;;;;;;;24.30;6.07;;;6.80;47.70;;;;;;10327444;28;20242;-80
2021/12/17 09:08:02;;;;;;;47.80;5.80;;;6.80;48.00;;;;;;10321745;28;20299;-80
2021/12/17 09:13:07;;;;;;;40.37;6.03;;;6.70;47.60;;;;;;10326456;28;20244;-80
2021/12/17 09:18:11;;;;;;;27.40;5.33;;;6.70;47.60;;;;;;10329625;28;20628;-81
2021/12/17 09:23:14;;;;;;;51.57;5.60;;;6.70;47.90;;;;;;10329253;28;20694;-81
2021/12/17 09:28:25;;;;;;;69.67;6.30;;;6.70;47.60;;;;;;10332327;28;20781;-80
2021/12/17 09:33:30;;;;;;;75.87;4.63;;;6.70;47.60;;;;;;10331711;28;20867;-79
2021/12/17 09:38:33;;;;;;;37.53;3.83;;;6.60;47.60;;;;;;10336146;28;20222;-79
2021/12/17 09:43:37;;;;;;;71.80;4.23;;;6.60;47.80;;;;;;10327440;28;20519;-80
2021/12/17 09:48:46;;;;;;;31.07;3.93;;;6.60;48.00;;;;;;10325588;28;20648;-79
2021/12/17 09:53:50;;;;;;;30.63;4.20;;;6.60;48.20;;;;;;10321185;28;20237;-79
2021/12/17 09:58:53;;;;;;;59.43;4.37;;;6.60;48.10;;;;;;10318936;28;20238;-81
2021/12/17 10:04:16;;;;;;;56.60;4.30;;;6.70;48.50;;;;;;10313008;28;20856;-80
2021/12/17 10:09:20;;;;;;;4.07;3.60;;;6.70;48.80;;;;;;10307108;28;20231;-80
2021/12/17 10:14:24;;;;;;;78.53;4.53;;;6.80;48.80;;;;;;10315491;28;20997;-81
2021/12/17 10:19:47;;;;;;;83.57;4.87;;;6.90;48.80;;;;;;10314302;28;20227;-80
2021/12/17 10:25:07;;;;;;;8.83;4.07;;;6.80;49.00;;;;;;10315082;28;20238;-82
2021/12/17 10:30:13;;;;;;;13.87;3.93;;;7.00;49.10;;;;;;10314755;28;20291;-81
2021/12/17 10:35:21;;;;;;;9.43;4.00;;;7.10;49.10;;;;;;10318897;28;20235;-78
2021/12/17 10:40:27;;;;;;;24.87;4.23;;;7.10;49.20;;;;;;10314947;28;20231;-80
2021/12/17 10:45:35;;;;;;;23.60;6.47;;;7.20;49.20;;;;;;10314625;28;20269;-81
2021/12/17 10:50:40;;;;;;;41.90;5.33;;;7.30;49.50;;;;;;10314809;28;20231;-80
2021/12/17 10:55:45;;;;;;;20.30;4.33;;;7.30;49.10;;;;;;10308189;28;20731;-81
2021/12/17 11:00:54;;;;;;;6.00;4.67;;;7.30;49.00;;;;;;10310004;28;20238;-82
2021/12/17 11:05:59;;;;;;;32.40;4.50;;;7.30;49.30;;;;;;10331012;28;20235;-80
2021/12/17 11:11:11;;;;;;;7.83;4.47;;;7.40;49.50;;;;;;10320709;28;20868;-79
2021/12/17 11:16:15;;;;;;;10.57;4.63;;;7.40;49.60;;;;;;10317870;28;20226;-79
2021/12/17 11:21:21;;;;;;;5.50;4.97;;;7.40;49.30;;;;;;10317732;28;20249;-80
2021/12/17 11:26:25;;;;;;;5.47;4.97;;;7.50;49.50;;;;;;10317738;28;20233;-79
2021/12/17 11:31:28;;;;;;;8.83;5.10;;;7.60;49.40;;;;;;10313464;28;20311;-79
2021/12/17 11:36:33;;;;;;;28.30;5.03;;;7.60;49.30;;;;;;10317855;28;20229;-79
2021/12/17 11:41:51;;;;;;;8.07;4.70;;;7.70;49.40;;;;;;10314379;28;20235;-80
2021/12/17 11:47:03;;;;;;;24.60;4.43;;;7.80;49.50;;;;;;10319522;28;20226;-80
2021/12/17 11:52:08;;;;;;;9.23;4.50;;;7.80;49.40;;;;;;10312597;28;20223;-80
2021/12/17 11:57:17;;;;;;;35.27;5.50;;;7.80;49.30;;;;;;10317380;28;20244;-80
2021/12/17 12:02:23;;;;;;;6.03;4.60;;;7.90;49.30;;;;;;10313383;28;20303;-77
2021/12/17 12:07:37;;;;;;;21.20;4.80;;;7.90;49.40;;;;;;10312517;28;20227;-79
2021/12/17 12:13:04;;;;;;;30.03;5.60;;;7.90;49.70;;;;;;10310734;28;20231;-79
2021/12/17 12:18:18;;;;;;;8.63;5.10;;;7.90;49.70;;;;;;10329417;28;21702;-81
2021/12/17 12:23:26;;;;;;;8.57;4.97;;;8.00;49.60;;;;;;10328182;28;20242;-83
2021/12/17 12:28:43;;;;;;;10.57;4.93;;;8.00;49.50;;;;;;10324283;28;20789;-80
2021/12/17 12:34:10;;;;;;;7.60;4.53;;;8.10;49.80;;;;;;10321729;28;20235;-80
2021/12/17 12:39:37;;;;;;;15.73;4.67;;;8.10;49.70;;;;;;10317564;28;20670;-79
2021/12/17 12:45:13;;;;;;;5.87;5.23;;;8.10;49.50;;;;;;10325554;28;20234;-79
2021/12/17 12:50:18;;;;;;;5.57;5.07;;;8.10;49.60;;;;;;10322894;28;20271;-78
2021/12/17 12:55:29;;;;;;;5.53;5.00;;;8.20;49.30;;;;;;10330533;28;20237;-78
2021/12/17 13:00:35;;;;;;;6.90;5.47;;;8.20;49.30;;;;;;10324181;28;20238;-80
2021/12/17 13:05:39;;;;;;;8.77;6.37;;;8.20;49.30;;;;;;10321445;28;20235;-81
2021/12/17 13:10:50;;;;;;;7.63;6.33;;;8.20;49.20;;;;;;10331749;28;20651;-77
2021/12/17 13:16:07;;;;;;;16.07;6.80;;;8.30;49.00;;;;;;10320772;28;20265;-80
2021/12/17 13:21:42;;;;;;;18.40;6.80;;;8.20;48.70;;;;;;10320891;28;20227;-79
2021/12/17 13:26:49;;;;;;;24.27;6.50;;;8.20;48.60;;;;;;10326599;28;20688;-78
2021/12/17 13:31:54;;;;;;;33.37;6.67;;;8.10;48.50;;;;;;10324913;28;20234;-82
2021/12/17 13:37:10;;;;;;;12.93;9.60;;;8.10;48.60;;;;;;10322921;28;20234;-81
2021/12/17 13:42:17;;;;;;;24.63;11.03;;;8.00;48.90;;;;;;10323493;28;20226;-80
2021/12/17 13:47:27;;;;;;;12.90;10.77;;;8.00;48.80;;;;;;10320549;28;20238;-80
2021/12/17 13:52:32;;;;;;;14.40;12.17;;;8.00;48.90;;;;;;10315034;28;20246;-81
2021/12/17 13:57:37;;;;;;;15.23;11.67;;;7.90;48.80;;;;;;10318721;28;20736;-83
2021/12/17 14:02:41;;;;;;;11.27;9.77;;;8.00;49.00;;;;;;10311648;28;20222;-82
2021/12/17 14:07:50;;;;;;;11.40;10.20;;;7.90;48.70;;;;;;10315930;28;20227;-84
2021/12/17 14:12:55;;;;;;;11.97;10.70;;;7.90;48.80;;;;;;10318119;28;20277;-83
2021/12/17 14:18:21;;;;;;;11.57;10.37;;;7.80;48.70;;;;;;10319238;28;20219;-83
2021/12/17 14:23:25;;;;;;;13.70;10.47;;;7.80;48.90;;;;;;10319922;28;20260;-84
2021/12/17 14:28:31;;;;;;;15.87;12.50;;;7.80;49.00;;;;;;10322088;28;20315;-82
2021/12/17 14:33:37;;;;;;;14.90;11.07;;;7.90;49.00;;;;;;10320567;28;20304;-84
2021/12/17 14:38:45;;;;;;;13.80;11.30;;;7.80;48.90;;;;;;10311412;28;20738;-84
2021/12/17 14:43:57;;;;;;;13.90;11.70;;;7.80;48.80;;;;;;10319534;28;20602;-83
2021/12/17 15:05:17;;;;;;;12.93;11.27;;;7.90;50.60;;;;;;10319710;28;20716;-82
2021/12/17 15:10:23;;;;;;;16.73;11.80;;;8.00;49.60;;;;;;10318919;28;20238;-82
2021/12/17 15:15:30;;;;;;;11.93;10.53;;;8.00;49.10;;;;;;10312791;28;20236;-84
2021/12/17 15:20:34;;;;;;;13.13;11.73;;;8.00;49.10;;;;;;10307578;28;20565;-82
2021/12/17 15:25:39;;;;;;;12.27;10.47;;;8.00;48.80;;;;;;10311395;28;20227;-84
2021/12/17 15:30:46;;;;;;;11.67;10.47;;;7.90;48.60;;;;;;10312510;28;20223;-84
2021/12/17 15:35:50;;;;;;;12.20;11.00;;;7.90;48.80;;;;;;10315187;28;20298;-83
2021/12/17 15:40:54;;;;;;;10.20;9.20;;;7.90;48.70;;;;;;10313122;28;20258;-83
2021/12/17 15:45:58;;;;;;;9.90;9.00;;;7.80;48.70;;;;;;10315893;28;20231;-83
2021/12/17 15:51:02;;;;;;;9.50;8.60;;;7.80;48.40;;;;;;10337062;28;20234;-83
2021/12/17 15:56:06;;;;;;;9.50;8.60;;;7.80;48.60;;;;;;10317708;28;20243;-83
2021/12/17 16:01:11;;;;;;;10.17;9.23;;;7.70;48.60;;;;;;10322726;28;20241;-83
2021/12/17 16:06:14;;;;;;;9.03;8.23;;;7.60;48.60;;;;;;10324811;28;20262;-80
2021/12/17 16:11:44;;;;;;;10.00;9.10;;;7.60;48.80;;;;;;10332967;28;20704;-80
2021/12/17 16:17:05;;;;;;;9.60;8.70;;;7.60;48.90;;;;;;10322697;28;20737;-79
2021/12/17 16:22:08;;;;;;;10.27;9.37;;;7.70;49.20;;;;;;10329539;28;20234;-79
2021/12/17 16:27:11;;;;;;;10.97;9.87;;;7.70;49.00;;;;;;10329737;28;20226;-79
2021/12/17 16:32:16;;;;;;;10.07;9.17;;;7.80;48.70;;;;;;10332400;28;20249;-81
2021/12/17 16:37:21;;;;;;;11.67;10.47;;;7.70;48.60;;;;;;10324726;28;20243;-80
2021/12/17 16:42:24;;;;;;;13.20;11.90;;;7.70;48.70;;;;;;10323655;28;20247;-78
2021/12/17 16:47:30;;;;;;;12.97;11.77;;;7.70;48.60;;;;;;10320835;28;20231;-80
2021/12/17 16:52:34;;;;;;;13.63;12.33;;;7.70;48.70;;;;;;10335567;28;20654;-80
2021/12/17 16:57:38;;;;;;;12.47;11.33;;;7.70;48.50;;;;;;10332191;28;20233;-80
2021/12/17 17:02:42;;;;;;;11.57;10.47;;;7.70;48.50;;;;;;10332122;28;20235;-81
2021/12/17 17:07:46;;;;;;;11.00;9.90;;;7.70;48.30;;;;;;10326905;28;20249;-81
2021/12/17 17:12:50;;;;;;;11.27;10.27;;;7.60;48.20;;;;;;10327340;28;20239;-81
2021/12/17 17:17:56;;;;;;;13.43;12.23;;;7.60;48.20;;;;;;10328940;28;20230;-82
2021/12/17 17:23:00;;;;;;;11.77;10.77;;;7.60;48.30;;;;;;10332216;28;20725;-82
2021/12/17 17:28:05;;;;;;;12.00;10.90;;;7.60;48.10;;;;;;10328830;28;20281;-81
2021/12/17 17:33:10;;;;;;;11.30;10.30;;;7.50;48.10;;;;;;10330858;28;20615;-81
2021/12/17 17:38:13;;;;;;;12.67;11.47;;;7.50;47.80;;;;;;10320319;28;20233;-81
2021/12/17 17:43:19;;;;;;;11.97;10.97;;;7.40;47.90;;;;;;10318673;28;20742;-81
2021/12/17 17:48:24;;;;;;;10.67;9.57;;;7.40;48.10;;;;;;10318403;28;20232;-81
2021/12/17 17:53:28;;;;;;;11.27;10.27;;;7.40;48.20;;;;;;10310630;28;20261;-81
2021/12/17 17:58:31;;;;;;;12.97;11.67;;;7.40;48.30;;;;;;10314622;28;20235;-80
2021/12/17 18:03:36;;;;;;;12.47;11.27;;;7.50;48.30;;;;;;10326006;28;20732;-81
2021/12/17 18:08:39;;;;;;;13.13;11.90;;;7.50;48.00;;;;;;10317657;28;20242;-80
2021/12/17 18:13:43;;;;;;;11.97;10.77;;;7.50;48.00;;;;;;10315772;28;20231;-81
2021/12/17 18:18:47;;;;;;;17.60;15.80;;;7.40;47.80;;;;;;10318281;28;20273;-81
2021/12/17 18:23:50;;;;;;;11.23;10.13;;;7.40;47.80;;;;;;10316928;28;20245;-81
2021/12/17 18:28:55;;;;;;;10.10;9.10;;;7.40;47.90;;;;;;10314336;28;20249;-80
2021/12/17 18:34:00;;;;;;;11.27;10.17;;;7.40;47.80;;;;;;10316399;28;20235;-81
2021/12/17 18:39:04;;;;;;;11.30;10.27;;;7.30;47.40;;;;;;10316990;28;20241;-81
2021/12/17 18:44:08;;;;;;;10.70;9.63;;;7.30;47.70;;;;;;10315776;28;20235;-81
2021/12/17 18:49:14;;;;;;;11.87;10.77;;;7.30;48.00;;;;;;10333539;28;20231;-81
2021/12/17 18:54:17;;;;;;;12.80;11.50;;;7.30;47.80;;;;;;10334391;28;20773;-82
2021/12/17 18:59:20;;;;;;;12.20;11.00;;;7.30;47.90;;;;;;10319817;28;20250;-81
2021/12/17 19:04:25;;;;;;;13.10;11.90;;;7.30;47.80;;;;;;10334755;28;20794;-81
2021/12/17 19:09:28;;;;;;;13.27;11.97;;;7.40;47.60;;;;;;10332026;28;20237;-81
2021/12/17 19:14:33;;;;;;;13.70;12.30;;;7.30;47.60;;;;;;10334857;28;20733;-81
2021/12/17 19:19:47;;;;;;;13.27;12.00;;;7.30;47.70;;;;;;10323452;28;20348;-81
2021/12/17 19:24:50;;;;;;;13.47;12.17;;;7.30;47.90;;;;;;10323335;28;20239;-81
2021/12/17 19:29:54;;;;;;;15.00;13.57;;;7.40;47.90;;;;;;10335877;28;20238;-81
2021/12/17 19:34:58;;;;;;;15.13;13.67;;;7.40;47.80;;;;;;10317835;28;20222;-81
2021/12/17 19:40:01;;;;;;;15.23;13.83;;;7.40;47.70;;;;;;10320295;28;20231;-83
2021/12/17 19:45:08;;;;;;;15.50;14.07;;;7.40;47.70;;;;;;10325423;28;20252;-81
2021/12/17 19:50:15;;;;;;;15.97;14.40;;;7.40;47.80;;;;;;10306238;28;20317;-83
2021/12/17 19:55:23;;;;;;;16.60;14.90;;;7.40;47.40;;;;;;10338888;28;20619;-83
2021/12/17 20:00:26;;;;;;;16.73;14.90;;;7.40;47.40;;;;;;10332761;28;20233;-82
2021/12/17 20:05:33;;;;;;;16.50;14.80;;;7.40;47.30;;;;;;10335002;28;20238;-79
2021/12/17 20:10:38;;;;;;;16.07;14.47;;;7.40;47.00;;;;;;10325857;28;20227;-79
2021/12/17 20:15:42;;;;;;;15.13;13.53;;;7.30;47.20;;;;;;10328836;28;20234;-82
2021/12/17 20:20:47;;;;;;;17.60;15.83;;;7.40;47.50;;;;;;10335690;28;20265;-82
2021/12/17 20:25:52;;;;;;;15.53;14.03;;;7.40;47.30;;;;;;10349691;28;20250;-80
2021/12/17 20:30:56;;;;;;;16.47;14.80;;;7.40;47.40;;;;;;10330011;28;20248;-82
2021/12/17 20:36:01;;;;;;;16.63;14.93;;;7.40;47.40;;;;;;10308920;28;20246;-82
2021/12/17 20:41:06;;;;;;;18.67;16.73;;;7.40;47.40;;;;;;10311191;28;20243;-84
2021/12/17 20:46:12;;;;;;;17.50;15.80;;;7.40;47.20;;;;;;10313069;28;20246;-82
2021/12/17 20:51:17;;;;;;;17.57;15.67;;;7.50;47.40;;;;;;10314230;28;20239;-82
2021/12/17 20:56:24;;;;;;;17.30;15.50;;;7.50;47.70;;;;;;10344429;28;20597;-83
2021/12/17 21:01:46;;;;;;;18.90;16.77;;;7.50;46.80;;;;;;10346931;28;20301;-83
2021/12/17 21:06:54;;;;;;;17.93;16.07;;;7.40;46.50;;;;;;10348564;28;20242;-82
2021/12/17 21:12:02;;;;;;;16.47;14.77;;;7.30;46.70;;;;;;10351039;28;20235;-82
2021/12/17 21:17:06;;;;;;;16.67;14.97;;;7.30;46.80;;;;;;10337604;28;20250;-82
2021/12/17 21:22:11;;;;;;;17.60;15.70;;;7.30;46.80;;;;;;10340898;28;20783;-82
2021/12/17 21:27:14;;;;;;;15.17;13.67;;;7.20;47.10;;;;;;10330923;28;20227;-83
2021/12/17 21:32:18;;;;;;;15.50;14.00;;;7.10;46.80;;;;;;10342396;28;20254;-82
2021/12/17 21:37:23;;;;;;;15.97;14.37;;;7.20;47.00;;;;;;10344227;28;20239;-82
2021/12/17 21:42:27;;;;;;;14.77;13.37;;;7.20;47.20;;;;;;10337742;28;20815;-83
2021/12/17 21:47:30;;;;;;;15.87;14.30;;;7.20;47.30;;;;;;10333242;28;20266;-82
2021/12/17 21:52:36;;;;;;;15.13;13.63;;;7.20;47.00;;;;;;10344767;28;20518;-82
2021/12/17 21:57:40;;;;;;;14.33;12.93;;;7.20;46.80;;;;;;10339837;28;20231;-82
2021/12/17 22:02:44;;;;;;;14.77;13.37;;;7.20;46.80;;;;;;10336185;28;20720;-82
2021/12/17 22:07:53;;;;;;;13.43;12.20;;;7.20;46.90;;;;;;10345985;28;20243;-83
2021/12/17 22:12:56;;;;;;;15.03;13.63;;;7.20;46.70;;;;;;10340250;28;20298;-82
2021/12/17 22:18:01;;;;;;;15.23;13.83;;;7.20;46.70;;;;;;10344221;28;20270;-82
2021/12/17 22:23:06;;;;;;;15.07;13.67;;;7.10;46.40;;;;;;10340935;28;20241;-83
2021/12/17 22:28:09;;;;;;;15.93;14.43;;;7.10;46.60;;;;;;10333023;28;20326;-82
2021/12/17 22:33:13;;;;;;;14.53;13.13;;;7.10;46.60;;;;;;10337472;28;20291;-82
2021/12/17 22:38:18;;;;;;;16.70;15.10;;;7.00;46.50;;;;;;10324827;28;20243;-82
2021/12/17 22:43:22;;;;;;;14.83;13.43;;;7.00;46.20;;;;;;10345411;28;20325;-82
2021/12/17 22:48:27;;;;;;;14.63;13.23;;;6.90;46.70;;;;;;10329564;28;20254;-83
2021/12/17 22:53:32;;;;;;;15.17;13.63;;;6.80;46.70;;;;;;10327756;28;20231;-82
2021/12/17 22:58:36;;;;;;;14.43;13.13;;;6.80;46.90;;;;;;10334663;28;20258;-82
2021/12/17 23:03:47;;;;;;;13.27;12.10;;;6.90;46.60;;;;;;10336573;28;20724;-83
2021/12/17 23:09:14;;;;;;;12.57;11.47;;;6.80;46.50;;;;;;10337685;28;20274;-82
2021/12/17 23:14:20;;;;;;;12.93;11.83;;;6.80;46.50;;;;;;10336791;28;20243;-82
2021/12/17 23:19:23;;;;;;;12.33;11.27;;;6.80;46.60;;;;;;10347652;28;20235;-82
2021/12/17 23:24:29;;;;;;;13.10;12.00;;;6.70;46.60;;;;;;10331560;28;20963;-82
2021/12/17 23:29:33;;;;;;;14.03;12.83;;;6.70;46.50;;;;;;10336167;28;20255;-83
2021/12/17 23:34:45;;;;;;;13.60;12.43;;;6.70;46.80;;;;;;10327618;28;20239;-83
2021/12/17 23:39:49;;;;;;;14.93;13.67;;;6.60;47.10;;;;;;10328210;28;20262;-85
2021/12/17 23:44:53;;;;;;;15.83;14.33;;;6.70;47.30;;;;;;10336950;28;20295;-82
2021/12/17 23:49:56;;;;;;;15.07;13.67;;;6.70;47.20;;;;;;10349320;28;20249;-82
2021/12/17 23:55:01;;;;;;;13.93;12.67;;;6.70;47.10;;;;;;10334869;28;20239;-82
